Time;durP1;ratioP1;P1;durP2;ratioP2;P2;SDS_P1;SDS_P2;PMS_P1;PMS_P2;Temp;Humidity;BMP_temperature;BMP_pressure;BME280_temperature;BME280_humidity;BME280_pressure;Samples;Min_cycle;Max_cycle;Signal;HPM_P1;HPM_P2
2022/06/07 00:05:08;;;;;;;8.55;3.28;;;;;;;;;;5111065;27;20389;-65
2022/06/07 00:11:12;;;;;;;9.13;3.63;;;;;;;;;;5070890;28;20430;-68
2022/06/07 00:13:38;;;;;;;5.85;3.17;;;;;;;;;;5070237;28;20029;-67
2022/06/07 00:16:59;;;;;;;5.88;3.08;;;;;;;;;;5173319;27;20124;-65
2022/06/07 00:19:25;;;;;;;7.95;2.75;;;;;;;;;;5133421;27;20031;-65
2022/06/07 00:24:07;;;;;;;5.97;3.00;;;;;;;;;;5111711;27;20388;-65
2022/06/07 00:26:37;;;;;;;5.93;3.10;;;;;;;;;;5110920;28;20042;-68
2022/06/07 00:37:21;;;;;;;8.65;3.83;;;;;;;;;;5111320;27;20789;-65
2022/06/07 00:39:47;;;;;;;7.93;3.10;;;;;;;;;;5111068;28;20034;-65
2022/06/07 00:42:13;;;;;;;5.32;2.25;;;;;;;;;;5110815;28;20024;-65
2022/06/07 00:44:44;;;;;;;5.07;2.83;;;;;;;;;;5110872;28;20020;-65
2022/06/07 00:48:43;;;;;;;6.63;2.92;;;;;;;;;;5111096;27;20388;-65
2022/06/07 00:51:11;;;;;;;4.95;2.58;;;;;;;;;;5111102;28;20062;-65
2022/06/07 00:53:37;;;;;;;7.93;3.53;;;;;;;;;;5111078;28;20465;-65
2022/06/07 00:56:28;;;;;;;7.20;3.30;;;;;;;;;;5110835;27;20412;-65
2022/06/07 00:58:54;;;;;;;5.07;2.63;;;;;;;;;;5111074;28;20024;-67
2022/06/07 01:01:59;;;;;;;5.95;2.90;;;;;;;;;;5110903;27;20446;-66
2022/06/07 01:12:59;;;;;;;10.07;3.63;;;;;;;;;;5111522;27;20388;-68
2022/06/07 01:16:43;;;;;;;6.82;2.97;;;;;;;;;;5110906;27;20422;-65
2022/06/07 01:19:10;;;;;;;6.22;3.15;;;;;;;;;;5111063;28;20032;-65
2022/06/07 01:23:05;;;;;;;4.80;2.90;;;;;;;;;;5110917;27;20396;-65
2022/06/07 01:27:09;;;;;;;5.90;2.72;;;;;;;;;;5111291;27;20393;-65
2022/06/07 01:31:47;;;;;;;5.32;2.78;;;;;;;;;;5110902;27;20400;-65
2022/06/07 01:34:13;;;;;;;7.93;3.22;;;;;;;;;;5111131;28;20085;-65
2022/06/07 01:37:32;;;;;;;8.63;3.30;;;;;;;;;;5070398;28;20391;-65
2022/06/07 01:43:36;;;;;;;6.50;2.95;;;;;;;;;;5110778;28;20034;-68
2022/06/07 01:52:52;;;;;;;8.63;3.65;;;;;;;;;;5110703;27;20532;-66
2022/06/07 01:56:36;;;;;;;11.05;3.85;;;;;;;;;;5110759;27;20453;-65
2022/06/07 01:59:50;;;;;;;10.50;3.67;;;;;;;;;;5111031;27;20392;-65
2022/06/07 02:06:16;;;;;;;6.95;3.00;;;;;;;;;;5110809;27;20461;-65
2022/06/07 02:08:43;;;;;;;6.82;3.05;;;;;;;;;;5111187;28;20036;-65
2022/06/07 02:11:12;;;;;;;7.45;3.50;;;;;;;;;;5111094;28;20024;-68
2022/06/07 02:13:38;;;;;;;7.20;2.95;;;;;;;;;;5110683;28;20028;-66
2022/06/07 02:16:05;;;;;;;5.82;3.03;;;;;;;;;;5110920;28;20024;-66
2022/06/07 02:21:07;;;;;;;8.32;3.00;;;;;;;;;;5111346;27;20380;-65
2022/06/07 02:24:38;;;;;;;9.93;3.25;;;;;;;;;;5111303;27;20422;-65
2022/06/07 02:28:50;;;;;;;6.82;2.63;;;;;;;;;;5111200;27;20762;-65
2022/06/07 02:31:16;;;;;;;4.93;2.85;;;;;;;;;;5111406;28;20032;-65
2022/06/07 02:33:43;;;;;;;5.38;2.80;;;;;;;;;;5126619;28;20468;-67
2022/06/07 02:36:20;;;;;;;5.30;2.83;;;;;;;;;;5173423;27;20447;-65
2022/06/07 02:38:46;;;;;;;5.15;2.83;;;;;;;;;;5133812;27;20027;-68
2022/06/07 02:41:15;;;;;;;6.65;3.28;;;;;;;;;;5151869;27;20452;-66
2022/06/07 02:43:41;;;;;;;4.63;2.65;;;;;;;;;;5152156;27;20026;-65
2022/06/07 02:46:07;;;;;;;8.40;3.40;;;;;;;;;;5152055;27;20513;-65
2022/06/07 02:48:33;;;;;;;5.60;2.97;;;;;;;;;;5151775;27;20094;-68
2022/06/07 02:52:28;;;;;;;8.23;3.38;;;;;;;;;;5111186;27;20892;-66
2022/06/07 02:54:54;;;;;;;6.57;2.88;;;;;;;;;;5109487;28;20356;-66
2022/06/07 02:57:20;;;;;;;7.82;2.90;;;;;;;;;;5111052;28;20073;-66
2022/06/07 02:59:46;;;;;;;8.07;2.88;;;;;;;;;;5111125;28;20093;-66
2022/06/07 03:02:12;;;;;;;9.45;4.28;;;;;;;;;;5110696;28;20460;-66
2022/06/07 03:04:38;;;;;;;5.35;2.75;;;;;;;;;;5110974;28;20438;-66
2022/06/07 03:07:04;;;;;;;8.43;3.30;;;;;;;;;;5110896;28;20055;-66
2022/06/07 03:09:47;;;;;;;7.03;3.30;;;;;;;;;;5110965;27;20412;-66
2022/06/07 03:14:01;;;;;;;6.75;3.70;;;;;;;;;;5111047;27;20457;-65
2022/06/07 03:16:27;;;;;;;9.00;3.95;;;;;;;;;;5110809;28;20024;-66
2022/06/07 03:20:32;;;;;;;6.38;3.20;;;;;;;;;;5111373;27;20796;-65
2022/06/07 03:24:13;;;;;;;5.85;3.05;;;;;;;;;;5111409;27;20393;-68
2022/06/07 03:26:39;;;;;;;5.65;2.78;;;;;;;;;;5111168;28;20035;-65
2022/06/07 03:32:10;;;;;;;7.90;3.50;;;;;;;;;;5194181;27;20392;-65
2022/06/07 03:35:35;;;;;;;5.75;3.00;;;;;;;;;;5111936;27;20388;-66
2022/06/07 03:38:01;;;;;;;6.90;3.08;;;;;;;;;;5110790;28;20522;-66
2022/06/07 03:40:43;;;;;;;6.70;3.00;;;;;;;;;;5111037;28;20023;-66
2022/06/07 03:45:41;;;;;;;6.07;2.90;;;;;;;;;;5111300;27;20912;-65
2022/06/07 03:48:08;;;;;;;7.50;3.40;;;;;;;;;;5109813;28;20046;-65
2022/06/07 03:54:34;;;;;;;4.25;2.63;;;;;;;;;;5111272;27;20389;-65
2022/06/07 03:57:00;;;;;;;6.90;2.38;;;;;;;;;;5111186;28;20024;-65
2022/06/07 03:59:27;;;;;;;9.63;3.60;;;;;;;;;;5110703;28;20022;-66
2022/06/07 04:01:53;;;;;;;5.60;3.30;;;;;;;;;;5111014;28;20016;-65
2022/06/07 04:05:11;;;;;;;5.70;2.63;;;;;;;;;;5110922;27;20401;-66
2022/06/07 04:10:32;;;;;;;6.47;2.28;;;;;;;;;;5111125;28;20125;-66
2022/06/07 04:15:05;;;;;;;6.60;3.03;;;;;;;;;;5111447;27;20426;-66
2022/06/07 04:17:32;;;;;;;9.35;3.80;;;;;;;;;;5111146;28;20028;-66
2022/06/07 04:19:58;;;;;;;6.68;3.45;;;;;;;;;;5110572;28;20030;-66
2022/06/07 04:25:13;;;;;;;14.98;7.28;;;;;;;;;;5111226;27;20556;-69
2022/06/07 04:27:58;;;;;;;10.98;5.32;;;;;;;;;;5111484;27;20729;-73
2022/06/07 04:31:13;;;;;;;8.00;4.82;;;;;;;;;;5070810;28;20391;-72
2022/06/07 04:37:40;;;;;;;5.70;3.45;;;;;;;;;;5111364;27;20847;-71
2022/06/07 04:41:20;;;;;;;7.82;3.17;;;;;;;;;;5131261;27;20598;-71
2022/06/07 04:43:47;;;;;;;7.47;3.88;;;;;;;;;;5131616;28;20119;-71
2022/06/07 04:47:47;;;;;;;6.30;3.05;;;;;;;;;;5110825;27;20414;-72
2022/06/07 04:50:15;;;;;;;7.38;3.65;;;;;;;;;;5110824;28;20020;-73
2022/06/07 04:54:22;;;;;;;6.45;3.40;;;;;;;;;;5110977;27;20384;-72
2022/06/07 04:56:49;;;;;;;8.90;3.38;;;;;;;;;;5126761;28;20024;-72
2022/06/07 04:59:15;;;;;;;9.77;4.32;;;;;;;;;;5125906;28;20499;-73
2022/06/07 05:01:43;;;;;;;7.65;3.47;;;;;;;;;;5110430;28;20031;-72
2022/06/07 05:04:09;;;;;;;8.63;4.13;;;;;;;;;;5109378;28;20016;-72
2022/06/07 05:06:39;;;;;;;8.63;4.03;;;;;;;;;;5114510;28;20028;-72
2022/06/07 05:09:32;;;;;;;13.05;4.78;;;;;;;;;;5115249;27;20067;-72
2022/06/07 05:11:59;;;;;;;10.15;4.22;;;;;;;;;;5108786;28;20036;-72
2022/06/07 05:14:27;;;;;;;9.07;3.75;;;;;;;;;;5105532;28;20023;-63
2022/06/07 05:16:53;;;;;;;7.40;3.88;;;;;;;;;;5109910;28;20077;-64
2022/06/07 05:19:19;;;;;;;7.35;3.20;;;;;;;;;;5108654;28;20023;-64
2022/06/07 05:23:32;;;;;;;7.50;4.35;;;;;;;;;;5069263;28;20387;-66
2022/06/07 05:26:05;;;;;;;7.78;3.53;;;;;;;;;;5069411;28;20115;-65
2022/06/07 05:29:27;;;;;;;7.80;3.70;;;;;;;;;;5109657;27;20385;-63
2022/06/07 05:31:54;;;;;;;7.72;3.22;;;;;;;;;;5109920;28;20050;-64
2022/06/07 05:34:20;;;;;;;10.38;4.30;;;;;;;;;;5110684;28;20512;-64
2022/06/07 05:36:46;;;;;;;9.20;3.72;;;;;;;;;;5110251;28;20534;-64
2022/06/07 05:39:23;;;;;;;6.07;3.25;;;;;;;;;;5108599;28;20081;-64
2022/06/07 05:41:49;;;;;;;8.25;4.20;;;;;;;;;;5110853;28;20035;-63
2022/06/07 05:46:33;;;;;;;7.05;3.35;;;;;;;;;;5108495;27;20127;-63
2022/06/07 05:48:59;;;;;;;7.47;3.25;;;;;;;;;;5107631;28;20054;-63
2022/06/07 05:54:21;;;;;;;9.65;3.83;;;;;;;;;;5106201;27;20389;-66
2022/06/07 05:56:48;;;;;;;8.70;4.05;;;;;;;;;;5105619;28;20039;-62
2022/06/07 05:59:14;;;;;;;7.38;3.58;;;;;;;;;;5126612;28;20019;-64
2022/06/07 06:02:42;;;;;;;6.55;4.00;;;;;;;;;;5108394;27;20416;-64
2022/06/07 06:05:10;;;;;;;11.07;4.07;;;;;;;;;;5108499;28;20020;-63
2022/06/07 06:10:19;;;;;;;9.07;4.13;;;;;;;;;;5110814;28;20081;-63
2022/06/07 06:10:24;;;;;;;8.18;4.00;;;;;;;;;;5110939;28;20070;-64
2022/06/07 06:13:58;;;;;;;7.55;4.07;;;;;;;;;;5109606;27;20411;-63
2022/06/07 06:16:24;;;;;;;7.43;3.80;;;;;;;;;;5107342;28;20016;-63
2022/06/07 06:19:03;;;;;;;15.35;3.83;;;;;;;;;;5108535;27;20662;-65
2022/06/07 06:21:32;;;;;;;7.05;3.22;;;;;;;;;;5110411;28;20020;-64
2022/06/07 06:25:42;;;;;;;8.43;3.47;;;;;;;;;;5110353;27;20962;-63
2022/06/07 06:28:08;;;;;;;8.52;3.78;;;;;;;;;;5110790;28;20054;-64
2022/06/07 06:30:34;;;;;;;8.00;3.83;;;;;;;;;;5109173;28;20020;-62
2022/06/07 06:34:14;;;;;;;8.25;3.95;;;;;;;;;;5111769;27;20675;-65
2022/06/07 06:36:40;;;;;;;8.55;4.10;;;;;;;;;;5109137;28;20472;-62
2022/06/07 06:41:16;;;;;;;8.88;4.07;;;;;;;;;;5109429;27;20943;-63
2022/06/07 06:43:42;;;;;;;9.05;3.92;;;;;;;;;;5110086;28;20028;-62
2022/06/07 06:46:13;;;;;;;7.40;3.88;;;;;;;;;;5109400;28;20016;-63
2022/06/07 06:48:40;;;;;;;7.10;3.90;;;;;;;;;;5103841;28;20468;-63
2022/06/07 06:51:09;;;;;;;10.57;4.00;;;;;;;;;;5093447;28;20537;-63
2022/06/07 06:59:00;;;;;;;9.90;5.60;;;;;;;;;;5099238;27;20430;-63
2022/06/07 07:01:47;;;;;;;7.72;4.13;;;;;;;;;;5111550;27;20432;-64
2022/06/07 07:04:17;;;;;;;7.97;3.75;;;;;;;;;;5096462;28;20029;-63
2022/06/07 07:06:45;;;;;;;6.03;3.20;;;;;;;;;;5085121;28;20028;-63
2022/06/07 07:09:12;;;;;;;5.85;3.15;;;;;;;;;;5120085;27;20070;-64
2022/06/07 07:11:43;;;;;;;10.10;3.35;;;;;;;;;;5093131;28;20380;-63
2022/06/07 07:14:36;;;;;;;6.53;3.17;;;;;;;;;;5109686;27;20447;-64
2022/06/07 07:17:02;;;;;;;5.15;2.95;;;;;;;;;;5110037;28;20107;-65
2022/06/07 07:21:03;;;;;;;6.97;3.47;;;;;;;;;;5110990;27;20418;-65
2022/06/07 07:23:32;;;;;;;4.97;2.60;;;;;;;;;;5110336;28;20069;-63
2022/06/07 07:28:09;;;;;;;9.70;4.28;;;;;;;;;;5109714;27;20757;-63
2022/06/07 07:30:35;;;;;;;10.23;4.75;;;;;;;;;;5109925;28;20106;-62
2022/06/07 07:36:03;;;;;;;6.88;3.90;;;;;;;;;;5069005;28;20431;-61
2022/06/07 07:38:29;;;;;;;7.45;3.90;;;;;;;;;;5069343;28;20040;-60
2022/06/07 07:40:55;;;;;;;7.55;3.33;;;;;;;;;;5069490;28;20028;-61
2022/06/07 07:43:21;;;;;;;13.98;4.88;;;;;;;;;;5067224;28;20025;-61
2022/06/07 07:45:52;;;;;;;8.35;3.70;;;;;;;;;;5066558;28;20021;-61
2022/06/07 07:48:18;;;;;;;9.10;4.43;;;;;;;;;;5068002;28;20386;-61
2022/06/07 07:51:41;;;;;;;6.63;3.72;;;;;;;;;;5108552;27;20446;-63
2022/06/07 07:56:29;;;;;;;7.18;4.22;;;;;;;;;;5105812;27;20420;-65
2022/06/07 07:58:56;;;;;;;7.30;3.85;;;;;;;;;;5098927;28;20506;-63
2022/06/07 08:01:24;;;;;;;6.68;3.78;;;;;;;;;;5105378;28;20127;-63
2022/06/07 08:03:50;;;;;;;8.63;4.30;;;;;;;;;;5088058;28;20099;-63
2022/06/07 08:06:17;;;;;;;7.03;3.95;;;;;;;;;;5090933;28;20473;-63
2022/06/07 08:09:27;;;;;;;7.20;3.58;;;;;;;;;;5067753;28;20407;-64
2022/06/07 08:11:53;;;;;;;6.68;3.95;;;;;;;;;;5067337;28;20032;-63
2022/06/07 08:14:20;;;;;;;7.43;4.25;;;;;;;;;;5069482;28;20021;-63
2022/06/07 08:16:47;;;;;;;6.47;3.50;;;;;;;;;;5068619;28;20050;-63
2022/06/07 08:19:13;;;;;;;8.80;4.00;;;;;;;;;;5068579;28;20437;-64
2022/06/07 08:23:38;;;;;;;8.73;3.47;;;;;;;;;;5109042;27;20409;-61
2022/06/07 08:26:05;;;;;;;7.07;3.78;;;;;;;;;;5108647;28;20107;-62
2022/06/07 08:28:32;;;;;;;8.88;4.10;;;;;;;;;;5109232;28;20480;-62
2022/06/07 08:30:58;;;;;;;7.72;3.78;;;;;;;;;;5108532;28;20547;-62
2022/06/07 08:39:00;;;;;;;5.88;3.60;;;;;;;;;;5107718;28;20034;-63
2022/06/07 08:41:35;;;;;;;9.02;3.85;;;;;;;;;;5108206;28;20028;-62
2022/06/07 08:45:55;;;;;;;5.82;3.13;;;;;;;;;;5109165;27;20465;-61
2022/06/07 08:48:26;;;;;;;7.32;3.20;;;;;;;;;;5108504;28;20042;-62
2022/06/07 08:51:51;;;;;;;6.22;3.33;;;;;;;;;;5124781;27;20399;-63
2022/06/07 08:54:20;;;;;;;7.28;3.42;;;;;;;;;;5130767;28;20023;-62
2022/06/07 08:56:47;;;;;;;7.45;2.88;;;;;;;;;;5113241;28;20035;-62
2022/06/07 08:59:24;;;;;;;7.82;3.05;;;;;;;;;;5109376;27;20392;-61
2022/06/07 09:02:04;;;;;;;7.47;3.15;;;;;;;;;;5108557;28;20074;-62
2022/06/07 09:04:31;;;;;;;7.25;3.03;;;;;;;;;;5109074;28;20099;-62
2022/06/07 09:09:21;;;;;;;4.97;2.60;;;;;;;;;;5108858;27;20396;-62
2022/06/07 09:15:07;;;;;;;7.72;3.78;;;;;;;;;;5108118;27;20400;-66
2022/06/07 09:17:33;;;;;;;6.55;3.05;;;;;;;;;;5107098;28;20073;-66
2022/06/07 09:19:59;;;;;;;6.43;3.10;;;;;;;;;;5110706;28;20027;-67
2022/06/07 09:22:29;;;;;;;9.05;3.25;;;;;;;;;;5115876;28;20020;-67
2022/06/07 09:25:03;;;;;;;6.22;2.65;;;;;;;;;;5131146;27;20523;-66
2022/06/07 09:27:32;;;;;;;6.50;2.88;;;;;;;;;;5130110;28;20369;-68
2022/06/07 09:30:06;;;;;;;4.90;2.35;;;;;;;;;;5130493;27;20034;-68
2022/06/07 09:34:50;;;;;;;6.63;3.00;;;;;;;;;;5110244;27;20385;-67
2022/06/07 09:37:17;;;;;;;7.03;2.97;;;;;;;;;;5110856;28;20024;-66
2022/06/07 09:39:44;;;;;;;4.05;2.13;;;;;;;;;;5110334;28;20020;-66
2022/06/07 09:42:13;;;;;;;5.30;2.60;;;;;;;;;;5110417;28;20062;-67
2022/06/07 09:44:40;;;;;;;4.85;2.80;;;;;;;;;;5110043;28;20103;-67
2022/06/07 09:50:04;;;;;;;5.80;2.38;;;;;;;;;;5106661;27;20774;-65
2022/06/07 09:55:25;;;;;;;6.35;2.67;;;;;;;;;;5149242;27;20739;-67
2022/06/07 09:58:05;;;;;;;5.95;2.45;;;;;;;;;;5128336;28;20110;-66
2022/06/07 10:00:40;;;;;;;8.70;2.47;;;;;;;;;;5129283;28;20069;-66
2022/06/07 10:03:25;;;;;;;4.28;2.30;;;;;;;;;;5130217;28;20023;-65
2022/06/07 10:06:10;;;;;;;6.75;3.40;;;;;;;;;;5130885;28;20072;-66
2022/06/07 10:08:48;;;;;;;4.38;2.33;;;;;;;;;;5112631;28;20027;-67
2022/06/07 10:11:14;;;;;;;6.38;2.55;;;;;;;;;;5130741;28;20503;-67
2022/06/07 10:13:46;;;;;;;7.75;2.40;;;;;;;;;;5130006;28;20495;-66
2022/06/07 10:16:15;;;;;;;6.03;2.90;;;;;;;;;;5128356;28;20016;-66
2022/06/07 10:18:59;;;;;;;6.93;3.08;;;;;;;;;;5117218;28;20321;-66
2022/06/07 10:21:54;;;;;;;8.60;2.47;;;;;;;;;;5110645;28;20507;-67
2022/06/07 10:24:34;;;;;;;6.88;3.20;;;;;;;;;;5110258;28;20106;-67
2022/06/07 10:27:00;;;;;;;5.78;2.35;;;;;;;;;;5114828;28;20053;-66
2022/06/07 10:29:27;;;;;;;4.65;2.70;;;;;;;;;;5130988;28;20035;-66
2022/06/07 10:32:01;;;;;;;5.65;2.60;;;;;;;;;;5125260;28;20024;-67
2022/06/07 10:35:02;;;;;;;3.95;2.22;;;;;;;;;;5114700;28;20070;-66
2022/06/07 10:37:37;;;;;;;7.68;2.45;;;;;;;;;;5019970;28;20097;-67
2022/06/07 10:40:09;;;;;;;6.78;2.45;;;;;;;;;;5110211;28;20031;-66
2022/06/07 10:42:37;;;;;;;9.15;3.17;;;;;;;;;;5129937;28;20019;-65
2022/06/07 10:45:10;;;;;;;4.97;2.20;;;;;;;;;;5110438;28;20043;-66
2022/06/07 10:47:41;;;;;;;5.90;2.72;;;;;;;;;;5125148;28;20506;-67
2022/06/07 10:50:18;;;;;;;5.70;2.45;;;;;;;;;;5109772;28;20073;-66
2022/06/07 10:53:16;;;;;;;4.20;2.13;;;;;;;;;;5116750;28;20023;-67
2022/06/07 10:55:48;;;;;;;3.83;2.17;;;;;;;;;;5121629;28;20054;-67
2022/06/07 10:58:17;;;;;;;7.20;2.50;;;;;;;;;;5101322;28;20421;-67
2022/06/07 11:00:48;;;;;;;4.50;2.20;;;;;;;;;;5128228;28;20037;-66
2022/06/07 11:03:14;;;;;;;4.80;2.15;;;;;;;;;;5124242;28;20136;-67
2022/06/07 11:11:22;;;;;;;3.75;1.80;;;;;;;;;;5095689;28;20077;-66
2022/06/07 11:13:49;;;;;;;5.00;2.03;;;;;;;;;;5104254;28;20035;-67
2022/06/07 11:16:20;;;;;;;5.65;2.22;;;;;;;;;;5116215;28;20020;-66
2022/06/07 11:18:47;;;;;;;4.25;1.90;;;;;;;;;;5113902;28;20036;-67
2022/06/07 11:21:21;;;;;;;5.55;2.05;;;;;;;;;;5100930;28;20059;-66
2022/06/07 11:23:48;;;;;;;4.28;2.03;;;;;;;;;;5095666;28;20035;-66
2022/06/07 11:26:19;;;;;;;3.65;2.10;;;;;;;;;;5097764;28;20020;-66
2022/06/07 11:28:49;;;;;;;4.57;1.98;;;;;;;;;;5103328;28;20028;-66
2022/06/07 11:31:21;;;;;;;4.28;2.05;;;;;;;;;;5096629;28;20518;-66
2022/06/07 11:33:47;;;;;;;3.65;1.98;;;;;;;;;;5114499;28;20067;-66
2022/06/07 11:36:13;;;;;;;4.85;2.10;;;;;;;;;;5115412;28;20098;-66
2022/06/07 11:41:40;;;;;;;3.03;1.60;;;;;;;;;;5094925;28;20032;-66
2022/06/07 11:44:12;;;;;;;4.93;2.25;;;;;;;;;;5095269;28;20500;-67
2022/06/07 11:46:50;;;;;;;4.50;1.75;;;;;;;;;;5094976;28;20036;-67
2022/06/07 11:49:26;;;;;;;4.05;2.00;;;;;;;;;;5094778;28;20056;-67
2022/06/07 11:51:54;;;;;;;4.32;2.00;;;;;;;;;;5095159;28;20017;-67
2022/06/07 11:54:39;;;;;;;5.68;2.78;;;;;;;;;;5094540;28;20074;-65
2022/06/07 11:57:20;;;;;;;6.95;1.85;;;;;;;;;;5094802;28;20039;-64
2022/06/07 11:59:47;;;;;;;5.55;2.03;;;;;;;;;;5094841;28;20024;-63
2022/06/07 12:02:13;;;;;;;4.95;2.05;;;;;;;;;;5094883;28;20491;-64
2022/06/07 12:04:45;;;;;;;6.13;2.00;;;;;;;;;;5094258;28;20073;-64
2022/06/07 12:07:23;;;;;;;4.30;2.67;;;;;;;;;;5094825;28;20058;-64
2022/06/07 12:09:51;;;;;;;3.22;1.70;;;;;;;;;;5105097;28;20091;-64
2022/06/07 12:12:18;;;;;;;3.78;1.92;;;;;;;;;;5115065;28;20418;-64
2022/06/07 12:14:49;;;;;;;4.57;2.10;;;;;;;;;;5114935;28;20028;-64
2022/06/07 12:17:20;;;;;;;4.07;1.80;;;;;;;;;;5114080;28;20397;-64
2022/06/07 12:19:47;;;;;;;4.30;1.73;;;;;;;;;;5115309;28;20031;-63
2022/06/07 12:22:16;;;;;;;4.32;2.00;;;;;;;;;;5115142;28;20019;-64
2022/06/07 12:24:45;;;;;;;3.78;1.65;;;;;;;;;;5114516;28;20467;-64
2022/06/07 12:27:14;;;;;;;3.28;1.60;;;;;;;;;;5109482;28;20031;-64
2022/06/07 12:29:43;;;;;;;3.40;1.85;;;;;;;;;;5114780;28;20031;-64
2022/06/07 12:32:16;;;;;;;5.78;1.70;;;;;;;;;;5114546;28;20102;-65
2022/06/07 12:34:42;;;;;;;2.83;1.80;;;;;;;;;;5114652;28;20035;-64
2022/06/07 12:37:11;;;;;;;2.58;1.55;;;;;;;;;;5114736;28;20060;-64
2022/06/07 12:39:42;;;;;;;4.28;2.05;;;;;;;;;;5114088;28;20466;-64
2022/06/07 12:42:14;;;;;;;4.57;2.25;;;;;;;;;;5114668;28;20028;-64
2022/06/07 12:44:42;;;;;;;;;;;;;;;;;;5114585;28;20012;-64
2022/06/07 12:47:21;;;;;;;4.25;1.60;;;;;;;;;;5114572;28;20279;-64
2022/06/07 12:49:48;;;;;;;3.58;1.50;;;;;;;;;;5114700;28;20464;-64
2022/06/07 12:52:19;;;;;;;4.88;1.55;;;;;;;;;;5114080;28;20519;-64
2022/06/07 12:54:53;;;;;;;2.78;1.58;;;;;;;;;;5114259;28;20048;-64
2022/06/07 12:57:25;;;;;;;6.28;1.33;;;;;;;;;;5114378;28;20019;-64
2022/06/07 12:59:54;;;;;;;2.63;1.30;;;;;;;;;;5095656;28;20030;-64
2022/06/07 13:02:52;;;;;;;2.50;1.50;;;;;;;;;;5114040;28;20516;-64
2022/06/07 13:05:20;;;;;;;3.67;1.55;;;;;;;;;;5058294;28;20043;-65
2022/06/07 13:07:47;;;;;;;4.10;1.70;;;;;;;;;;5113782;28;20085;-65
2022/06/07 13:10:19;;;;;;;3.20;1.42;;;;;;;;;;5114294;28;20548;-65
2022/06/07 13:12:46;;;;;;;3.22;1.38;;;;;;;;;;5113805;28;20034;-65
2022/06/07 13:15:19;;;;;;;4.80;1.92;;;;;;;;;;5095874;28;20028;-65
2022/06/07 13:17:54;;;;;;;4.90;1.40;;;;;;;;;;5114268;28;20418;-65
2022/06/07 13:20:27;;;;;;;3.25;1.85;;;;;;;;;;5113882;28;20024;-65
2022/06/07 13:22:53;;;;;;;2.88;1.40;;;;;;;;;;5114015;28;20410;-65
2022/06/07 13:25:24;;;;;;;3.13;1.27;;;;;;;;;;5113912;28;20024;-65
2022/06/07 13:27:51;;;;;;;3.38;1.50;;;;;;;;;;5112541;28;20103;-65
2022/06/07 13:30:26;;;;;;;2.58;1.30;;;;;;;;;;5114014;28;20023;-65
2022/06/07 13:33:07;;;;;;;3.47;1.60;;;;;;;;;;5113826;28;20472;-65
2022/06/07 13:35:41;;;;;;;4.50;1.55;;;;;;;;;;5113618;28;20031;-65
2022/06/07 13:38:19;;;;;;;4.63;1.67;;;;;;;;;;5113879;28;20015;-65
2022/06/07 13:40:46;;;;;;;2.63;1.48;;;;;;;;;;5095664;28;20077;-65
2022/06/07 13:43:12;;;;;;;3.90;1.55;;;;;;;;;;5113397;28;20537;-65
2022/06/07 13:45:47;;;;;;;4.15;1.50;;;;;;;;;;5113559;28;20487;-65
2022/06/07 13:48:21;;;;;;;2.03;1.23;;;;;;;;;;5113470;28;20613;-65
2022/06/07 13:53:47;;;;;;;4.80;1.90;;;;;;;;;;5113592;28;20066;-65
2022/06/07 13:56:15;;;;;;;5.15;1.48;;;;;;;;;;5113466;28;20486;-65
2022/06/07 13:58:42;;;;;;;7.40;2.65;;;;;;;;;;5113817;28;20027;-65
2022/06/07 14:01:16;;;;;;;3.38;1.50;;;;;;;;;;5113921;28;20034;-65
2022/06/07 14:03:49;;;;;;;3.70;1.48;;;;;;;;;;5113121;28;20026;-65
2022/06/07 14:06:35;;;;;;;3.55;1.95;;;;;;;;;;5113493;28;20032;-65
2022/06/07 14:09:04;;;;;;;3.17;1.60;;;;;;;;;;5113474;28;20532;-65
2022/06/07 14:11:32;;;;;;;2.22;1.35;;;;;;;;;;5113575;28;20055;-65
2022/06/07 14:13:58;;;;;;;3.08;1.50;;;;;;;;;;5113668;28;20102;-65
2022/06/07 14:16:31;;;;;;;5.32;1.60;;;;;;;;;;5095050;28;20494;-65
2022/06/07 14:18:59;;;;;;;3.10;1.55;;;;;;;;;;5113626;28;20394;-65
2022/06/07 14:21:25;;;;;;;2.92;1.38;;;;;;;;;;5113621;28;20020;-65
2022/06/07 14:23:52;;;;;;;2.65;1.42;;;;;;;;;;5113685;28;20417;-65
2022/06/07 14:26:18;;;;;;;4.82;1.50;;;;;;;;;;5113461;28;20024;-65
2022/06/07 14:28:45;;;;;;;3.13;1.60;;;;;;;;;;5113422;28;20058;-65
2022/06/07 14:31:19;;;;;;;4.45;1.17;;;;;;;;;;5113163;28;20372;-65
2022/06/07 14:33:46;;;;;;;4.53;1.33;;;;;;;;;;5113314;28;20032;-64
2022/06/07 14:36:12;;;;;;;3.42;1.30;;;;;;;;;;5113639;28;20023;-65
2022/06/07 14:38:39;;;;;;;2.63;1.30;;;;;;;;;;5094683;28;20388;-64
2022/06/07 14:41:05;;;;;;;2.63;1.65;;;;;;;;;;5115875;28;20031;-65
2022/06/07 14:43:31;;;;;;;3.10;1.40;;;;;;;;;;5117302;28;20020;-65
2022/06/07 14:46:02;;;;;;;3.65;1.58;;;;;;;;;;5116604;28;20023;-65
2022/06/07 14:48:28;;;;;;;4.90;1.60;;;;;;;;;;5098758;28;20023;-65
2022/06/07 14:50:55;;;;;;;2.88;1.33;;;;;;;;;;5116943;28;20028;-65
2022/06/07 14:53:22;;;;;;;3.20;1.20;;;;;;;;;;5116280;28;20067;-65
2022/06/07 14:55:48;;;;;;;2.80;1.25;;;;;;;;;;5117182;28;20028;-65
2022/06/07 14:58:15;;;;;;;4.05;1.40;;;;;;;;;;5116446;28;20099;-65
2022/06/07 15:00:45;;;;;;;5.53;1.50;;;;;;;;;;5117024;28;20030;-65
2022/06/07 15:03:12;;;;;;;2.25;1.45;;;;;;;;;;5116683;28;20026;-64
2022/06/07 15:05:39;;;;;;;4.45;1.48;;;;;;;;;;5116657;28;20049;-64
2022/06/07 15:08:12;;;;;;;2.00;1.10;;;;;;;;;;5116549;28;20028;-65
2022/06/07 15:10:39;;;;;;;5.85;1.77;;;;;;;;;;5098251;28;20028;-64
2022/06/07 15:13:25;;;;;;;2.38;1.40;;;;;;;;;;5097853;28;20038;-65
2022/06/07 15:15:52;;;;;;;2.50;1.23;;;;;;;;;;5116773;28;20016;-65
2022/06/07 15:18:19;;;;;;;3.53;1.50;;;;;;;;;;5116428;28;20034;-64
2022/06/07 15:20:46;;;;;;;4.03;1.50;;;;;;;;;;5115946;28;20058;-65
2022/06/07 15:23:20;;;;;;;3.47;1.55;;;;;;;;;;5116666;28;20380;-65
2022/06/07 15:25:48;;;;;;;3.25;1.42;;;;;;;;;;5116700;28;20368;-64
2022/06/07 15:28:15;;;;;;;1.98;1.27;;;;;;;;;;5115875;28;20015;-65
2022/06/07 15:30:42;;;;;;;3.00;1.60;;;;;;;;;;5116277;28;20027;-65
2022/06/07 15:33:09;;;;;;;2.22;1.40;;;;;;;;;;5116116;28;20088;-65
2022/06/07 15:35:36;;;;;;;3.35;1.90;;;;;;;;;;5115739;28;20035;-65
2022/06/07 15:38:03;;;;;;;2.08;1.20;;;;;;;;;;5116175;28;20033;-65
2022/06/07 15:40:29;;;;;;;4.75;1.60;;;;;;;;;;5115651;28;20503;-65
2022/06/07 15:42:58;;;;;;;3.22;1.73;;;;;;;;;;5116009;28;20496;-65
2022/06/07 15:45:36;;;;;;;2.65;1.13;;;;;;;;;;5116167;28;20020;-65
2022/06/07 15:48:05;;;;;;;2.85;1.08;;;;;;;;;;5115533;28;20081;-65
2022/06/07 15:50:31;;;;;;;3.20;1.35;;;;;;;;;;5115761;28;20501;-65
2022/06/07 15:52:59;;;;;;;1.63;1.10;;;;;;;;;;5115528;28;20089;-65
2022/06/07 15:55:25;;;;;;;2.50;1.40;;;;;;;;;;5115528;28;20515;-65
2022/06/07 16:00:36;;;;;;;3.33;1.40;;;;;;;;;;5116055;28;20038;-65
2022/06/07 16:03:02;;;;;;;2.67;1.20;;;;;;;;;;5097010;28;20055;-65
2022/06/07 16:05:28;;;;;;;2.53;1.35;;;;;;;;;;5115540;28;20034;-65
2022/06/07 16:07:55;;;;;;;3.33;2.15;;;;;;;;;;5115572;28;20024;-65
2022/06/07 16:10:21;;;;;;;3.15;1.95;;;;;;;;;;5114960;28;20055;-64
2022/06/07 16:12:47;;;;;;;3.83;1.70;;;;;;;;;;5115311;28;20016;-64
2022/06/07 16:15:15;;;;;;;3.78;1.30;;;;;;;;;;5115272;28;20035;-64
2022/06/07 16:17:42;;;;;;;1.85;1.30;;;;;;;;;;5114967;28;20441;-64
2022/06/07 16:20:09;;;;;;;2.33;1.33;;;;;;;;;;5115275;28;20100;-65
2022/06/07 16:22:35;;;;;;;3.85;1.58;;;;;;;;;;5115523;28;20024;-64
2022/06/07 16:25:02;;;;;;;2.92;1.38;;;;;;;;;;5114832;28;20037;-64
2022/06/07 16:35:53;;;;;;;3.60;1.80;;;;;;;;;;5096880;28;20068;-65
2022/06/07 16:38:21;;;;;;;2.10;1.50;;;;;;;;;;5114519;28;20023;-65
2022/06/07 16:40:47;;;;;;;4.03;1.70;;;;;;;;;;5114985;28;20031;-65
2022/06/07 16:45:58;;;;;;;2.15;1.52;;;;;;;;;;5114402;28;20047;-65
2022/06/07 16:48:24;;;;;;;2.92;1.58;;;;;;;;;;5114797;28;20043;-65
2022/06/07 16:50:50;;;;;;;3.70;1.83;;;;;;;;;;5114290;28;20038;-65
2022/06/07 16:53:16;;;;;;;2.58;1.70;;;;;;;;;;5114343;28;20051;-65
2022/06/07 16:55:43;;;;;;;4.78;1.65;;;;;;;;;;5095937;28;20042;-64
2022/06/07 16:58:10;;;;;;;4.07;1.60;;;;;;;;;;5114130;28;20023;-64
2022/06/07 17:00:36;;;;;;;3.85;1.50;;;;;;;;;;5114496;28;20040;-65
2022/06/07 17:03:02;;;;;;;7.35;2.20;;;;;;;;;;5113839;28;20020;-64
2022/06/07 17:05:28;;;;;;;5.10;2.08;;;;;;;;;;5113871;28;20028;-64
2022/06/07 17:07:55;;;;;;;3.08;1.77;;;;;;;;;;5114575;28;20135;-64
2022/06/07 17:10:22;;;;;;;3.97;2.28;;;;;;;;;;5114279;28;20030;-63
2022/06/07 17:12:48;;;;;;;5.07;1.92;;;;;;;;;;5095456;28;20039;-64
2022/06/07 17:15:14;;;;;;;3.03;1.90;;;;;;;;;;5114250;28;20416;-64
2022/06/07 17:17:41;;;;;;;5.03;1.75;;;;;;;;;;5113998;28;20027;-65
2022/06/07 17:20:07;;;;;;;4.10;1.85;;;;;;;;;;5113715;28;20066;-65
2022/06/07 17:22:33;;;;;;;4.38;2.33;;;;;;;;;;5114093;28;20047;-64
2022/06/07 17:25:42;;;;;;;5.80;2.35;;;;;;;;;;5111122;27;20396;-65
2022/06/07 17:28:08;;;;;;;3.78;1.83;;;;;;;;;;5110689;28;20019;-65
2022/06/07 17:30:35;;;;;;;3.92;1.77;;;;;;;;;;5111131;28;20024;-63
2022/06/07 17:33:01;;;;;;;4.20;2.30;;;;;;;;;;5110683;28;20446;-64
2022/06/07 17:35:28;;;;;;;7.07;1.92;;;;;;;;;;5111032;28;20050;-65
2022/06/07 17:37:54;;;;;;;5.60;2.20;;;;;;;;;;5110999;28;20091;-64
2022/06/07 17:40:28;;;;;;;6.20;2.63;;;;;;;;;;5110575;28;20522;-64
2022/06/07 17:42:54;;;;;;;5.45;2.53;;;;;;;;;;5111066;28;20537;-64
2022/06/07 17:45:20;;;;;;;3.47;1.90;;;;;;;;;;5110797;28;20036;-64
2022/06/07 17:47:47;;;;;;;5.82;2.08;;;;;;;;;;5110466;28;20059;-64
2022/06/07 17:50:17;;;;;;;9.90;5.82;;;;;;;;;;5110769;28;20031;-64